Ricardo, Texas
Current Conditions -  °F | °C
As of 12:56 PM on Thursday 18 Dec 2014 (Local Time) from KNQI Reporting Station
Broken Clouds Broken Clouds  
Wind Chill: 77°   Ceiling: 3300
Heat Index: 79°   Visibility: 10mi
Dew Point: 69°   Wind: 10mph
Humidity: 76%   Direction: 190°S
Pressure: 30"   Gusts: NA
Location:  27.4762°N, 97.7965°W
Report Text: KNQI 181856Z 19009KT 10SM SCT019 BKN033 BKN075 BKN250 25/21 A3000 RMK AO2 SLP156 T02500206
Loading
Personal Weather Stations






























Interactive Weather Map New forecast layout! Learn more

10-Day Weather Forecast

Advertisements
Track Severe Weather on mobile